Time;durP1;ratioP1;P1;durP2;ratioP2;P2;SDS_P1;SDS_P2;PMS_P1;PMS_P2;Temp;Humidity;BMP_temperature;BMP_pressure;BME280_temperature;BME280_humidity;BME280_pressure;Samples;Min_cycle;Max_cycle;Signal;HPM_P1;HPM_P2
2022/05/11 00:00:14;;;;;;;4.70;3.17;;;;;;;;;;516283;28;1537;-83
2022/05/11 00:00:30;;;;;;;3.85;3.25;;;;;;;;;;513398;28;1316;-83
2022/05/11 00:00:46;;;;;;;3.43;3.13;;;;;;;;;;514881;28;1243;-83
2022/05/11 00:01:08;;;;;;;3.30;3.00;;;;;;;;;;515747;28;1055;-83
2022/05/11 00:01:26;;;;;;;3.38;3.08;;;;;;;;;;515513;28;1235;-83
2022/05/11 00:01:41;;;;;;;3.60;3.30;;;;;;;;;;515403;28;1378;-83
2022/05/11 00:01:57;;;;;;;3.53;3.23;;;;;;;;;;513357;28;1173;-83
2022/05/11 00:02:12;;;;;;;3.97;3.20;;;;;;;;;;511300;29;1237;-83
2022/05/11 00:02:28;;;;;;;3.88;3.17;;;;;;;;;;509354;29;1182;-82
2022/05/11 00:02:43;;;;;;;3.30;3.00;;;;;;;;;;507547;29;1277;-83
2022/05/11 00:02:58;;;;;;;3.33;3.03;;;;;;;;;;507617;29;1247;-83
2022/05/11 00:03:15;;;;;;;3.27;2.97;;;;;;;;;;510004;29;1300;-83
2022/05/11 00:03:30;;;;;;;3.22;2.92;;;;;;;;;;509888;29;1249;-83
2022/05/11 00:03:45;;;;;;;3.77;3.07;;;;;;;;;;509849;29;1067;-83
2022/05/11 00:04:02;;;;;;;4.50;3.28;;;;;;;;;;510089;29;921;-83
2022/05/11 00:04:19;;;;;;;3.42;3.05;;;;;;;;;;511661;29;924;-83
2022/05/11 00:04:34;;;;;;;3.30;3.00;;;;;;;;;;512207;28;1349;-83
2022/05/11 00:04:50;;;;;;;3.70;3.08;;;;;;;;;;513447;28;1213;-83
2022/05/11 00:05:08;;;;;;;3.80;3.13;;;;;;;;;;514375;28;1651;-83
2022/05/11 00:05:23;;;;;;;3.40;3.10;;;;;;;;;;515749;28;1180;-83
2022/05/11 00:05:39;;;;;;;3.50;3.20;;;;;;;;;;515671;28;1250;-83
2022/05/11 00:05:54;;;;;;;3.50;3.20;;;;;;;;;;515685;28;1274;-83
2022/05/11 00:06:10;;;;;;;3.38;3.08;;;;;;;;;;515576;28;1899;-83
2022/05/11 00:06:27;;;;;;;3.80;3.00;;;;;;;;;;515601;28;1640;-83
2022/05/11 00:06:42;;;;;;;3.38;3.08;;;;;;;;;;515722;28;833;-83
2022/05/11 00:06:58;;;;;;;3.65;3.30;;;;;;;;;;513654;28;1278;-83
2022/05/11 00:07:13;;;;;;;3.80;3.13;;;;;;;;;;513727;28;1298;-83
2022/05/11 00:07:29;;;;;;;3.45;3.10;;;;;;;;;;513901;28;868;-83
2022/05/11 00:07:44;;;;;;;3.80;3.20;;;;;;;;;;513448;28;881;-82
2022/05/11 00:07:59;;;;;;;3.40;3.00;;;;;;;;;;514009;28;1259;-83
2022/05/11 00:08:16;;;;;;;3.30;3.00;;;;;;;;;;513919;28;1219;-83
2022/05/11 00:08:32;;;;;;;3.70;3.20;;;;;;;;;;513943;28;1047;-83
2022/05/11 00:08:47;;;;;;;3.57;3.10;;;;;;;;;;512445;28;1181;-83
2022/05/11 00:09:04;;;;;;;3.55;3.10;;;;;;;;;;513825;28;1185;-82
2022/05/11 00:09:20;;;;;;;3.90;3.20;;;;;;;;;;513941;28;1010;-83
2022/05/11 00:09:35;;;;;;;3.40;3.10;;;;;;;;;;511842;29;1148;-83
2022/05/11 00:09:50;;;;;;;3.60;3.20;;;;;;;;;;515327;28;1154;-83
2022/05/11 00:10:12;;;;;;;4.00;3.40;;;;;;;;;;516542;28;837;-83
2022/05/11 00:10:28;;;;;;;3.70;3.30;;;;;;;;;;517966;28;921;-83
2022/05/11 00:10:44;;;;;;;3.42;3.13;;;;;;;;;;519456;28;829;-83
2022/05/11 00:10:59;;;;;;;3.60;3.30;;;;;;;;;;517957;28;1467;-83
2022/05/11 00:11:15;;;;;;;3.60;3.30;;;;;;;;;;518070;28;789;-83
2022/05/11 00:11:31;;;;;;;3.45;3.15;;;;;;;;;;518092;28;864;-83
2022/05/11 00:11:46;;;;;;;4.00;3.13;;;;;;;;;;519743;28;1015;-83
2022/05/11 00:12:02;;;;;;;4.35;3.30;;;;;;;;;;520231;28;809;-83
2022/05/11 00:12:18;;;;;;;3.70;3.37;;;;;;;;;;517961;28;1277;-83
2022/05/11 00:12:33;;;;;;;4.10;3.40;;;;;;;;;;515913;28;1389;-83
2022/05/11 00:12:48;;;;;;;3.93;3.30;;;;;;;;;;514161;28;1399;-83
2022/05/11 00:13:04;;;;;;;4.10;3.40;;;;;;;;;;515808;28;1308;-83
2022/05/11 00:13:21;;;;;;;3.80;3.40;;;;;;;;;;515868;28;924;-83
2022/05/11 00:13:36;;;;;;;3.60;3.30;;;;;;;;;;515682;28;1406;-83
2022/05/11 00:13:52;;;;;;;3.83;3.43;;;;;;;;;;513716;28;1268;-82
2022/05/11 00:14:09;;;;;;;3.58;3.28;;;;;;;;;;515844;28;1323;-83
2022/05/11 00:14:24;;;;;;;3.47;3.17;;;;;;;;;;516601;28;869;-83
2022/05/11 00:14:40;;;;;;;3.80;3.40;;;;;;;;;;517115;28;1141;-83
2022/05/11 00:14:55;;;;;;;3.53;3.22;;;;;;;;;;513588;28;1447;-83
2022/05/11 00:15:13;;;;;;;3.40;3.10;;;;;;;;;;513902;28;936;-83
2022/05/11 00:15:29;;;;;;;3.70;3.40;;;;;;;;;;511792;29;786;-83
2022/05/11 00:15:45;;;;;;;4.50;3.50;;;;;;;;;;510689;28;1332;-83
2022/05/11 00:16:00;;;;;;;4.70;3.30;;;;;;;;;;512740;28;1322;-83
2022/05/11 00:16:16;;;;;;;3.90;3.20;;;;;;;;;;513945;28;1290;-83
2022/05/11 00:16:33;;;;;;;3.95;3.22;;;;;;;;;;513923;28;1351;-83
2022/05/11 00:16:49;;;;;;;3.90;3.30;;;;;;;;;;514732;28;1363;-83
2022/05/11 00:17:04;;;;;;;3.55;3.25;;;;;;;;;;516066;28;801;-83
2022/05/11 00:17:19;;;;;;;3.40;3.10;;;;;;;;;;513756;28;1302;-83
2022/05/11 00:17:35;;;;;;;3.73;3.20;;;;;;;;;;514080;28;782;-83
2022/05/11 00:17:51;;;;;;;3.97;3.20;;;;;;;;;;511987;28;1172;-83
2022/05/11 00:18:07;;;;;;;3.90;3.20;;;;;;;;;;513766;28;1115;-83
2022/05/11 00:18:22;;;;;;;4.00;3.30;;;;;;;;;;514564;28;802;-83
2022/05/11 00:18:39;;;;;;;3.67;3.20;;;;;;;;;;515844;28;1426;-83
2022/05/11 00:18:55;;;;;;;4.05;3.10;;;;;;;;;;511992;29;1283;-83
2022/05/11 00:19:10;;;;;;;4.33;3.20;;;;;;;;;;512555;28;1161;-83
2022/05/11 00:19:27;;;;;;;3.55;3.20;;;;;;;;;;511902;29;1326;-83
2022/05/11 00:19:42;;;;;;;3.50;3.20;;;;;;;;;;512311;28;1250;-83
2022/05/11 00:19:57;;;;;;;3.60;3.30;;;;;;;;;;513831;28;1195;-83
2022/05/11 00:20:15;;;;;;;3.60;3.30;;;;;;;;;;514286;28;793;-83
2022/05/11 00:20:30;;;;;;;3.40;3.08;;;;;;;;;;514147;28;896;-83
2022/05/11 00:20:48;;;;;;;3.40;3.10;;;;;;;;;;514004;28;1289;-83
2022/05/11 00:21:04;;;;;;;3.50;3.20;;;;;;;;;;514099;28;1025;-83
2022/05/11 00:21:19;;;;;;;4.00;3.30;;;;;;;;;;513166;28;1224;-83
2022/05/11 00:21:36;;;;;;;3.97;3.33;;;;;;;;;;513942;28;1169;-83
2022/05/11 00:21:51;;;;;;;3.65;3.35;;;;;;;;;;514631;28;1421;-83
2022/05/11 00:22:06;;;;;;;3.72;3.40;;;;;;;;;;515748;28;1473;-83
2022/05/11 00:22:22;;;;;;;4.30;3.40;;;;;;;;;;515541;28;1679;-83
2022/05/11 00:22:37;;;;;;;4.07;3.20;;;;;;;;;;516377;28;1434;-82
2022/05/11 00:22:57;;;;;;;3.35;3.05;;;;;;;;;;517696;28;1601;-83
2022/05/11 00:23:13;;;;;;;3.30;3.00;;;;;;;;;;518885;28;1047;-83
2022/05/11 00:23:28;;;;;;;3.40;3.10;;;;;;;;;;519139;28;876;-83
2022/05/11 00:23:43;;;;;;;3.40;3.00;;;;;;;;;;520051;28;1195;-83
2022/05/11 00:23:59;;;;;;;3.20;2.90;;;;;;;;;;519300;28;889;-83
2022/05/11 00:24:14;;;;;;;3.25;3.00;;;;;;;;;;515859;28;1174;-83
2022/05/11 00:24:30;;;;;;;3.73;3.33;;;;;;;;;;516769;28;821;-83
2022/05/11 00:24:45;;;;;;;4.07;3.50;;;;;;;;;;517802;28;1261;-83
2022/05/11 00:25:01;;;;;;;3.63;3.33;;;;;;;;;;518434;28;887;-83
2022/05/11 00:25:17;;;;;;;3.60;3.30;;;;;;;;;;519913;28;1359;-83
2022/05/11 00:25:33;;;;;;;4.07;3.38;;;;;;;;;;519570;28;848;-83
2022/05/11 00:25:48;;;;;;;4.50;3.30;;;;;;;;;;517904;28;1164;-83
2022/05/11 00:26:04;;;;;;;3.58;3.28;;;;;;;;;;517831;28;1964;-83
2022/05/11 00:26:20;;;;;;;3.60;3.30;;;;;;;;;;517900;28;1028;-83
2022/05/11 00:26:35;;;;;;;4.35;3.40;;;;;;;;;;518041;28;857;-83
2022/05/11 00:26:51;;;;;;;4.93;3.30;;;;;;;;;;517889;28;1255;-83
2022/05/11 00:27:06;;;;;;;3.90;3.30;;;;;;;;;;518218;28;867;-83
2022/05/11 00:27:21;;;;;;;3.50;3.20;;;;;;;;;;517764;28;1244;-83
2022/05/11 00:27:37;;;;;;;3.67;3.30;;;;;;;;;;518183;28;876;-83
2022/05/11 00:27:55;;;;;;;5.22;3.45;;;;;;;;;;517633;28;1179;-83
2022/05/11 00:28:11;;;;;;;4.37;3.33;;;;;;;;;;517923;28;851;-83
2022/05/11 00:28:27;;;;;;;3.60;3.30;;;;;;;;;;517966;28;1424;-83
2022/05/11 00:28:42;;;;;;;3.43;3.13;;;;;;;;;;518018;28;1203;-83
2022/05/11 00:28:57;;;;;;;3.42;3.13;;;;;;;;;;517961;28;1244;-83
2022/05/11 00:29:13;;;;;;;3.57;3.27;;;;;;;;;;518094;28;1276;-83
2022/05/11 00:29:30;;;;;;;3.50;3.20;;;;;;;;;;516052;28;1260;-83
2022/05/11 00:29:46;;;;;;;3.80;3.30;;;;;;;;;;515710;28;1248;-83
2022/05/11 00:30:02;;;;;;;4.37;3.60;;;;;;;;;;515596;28;1300;-83
2022/05/11 00:30:18;;;;;;;4.00;3.53;;;;;;;;;;515641;28;1248;-83
2022/05/11 00:30:33;;;;;;;3.80;3.40;;;;;;;;;;515677;28;1401;-83
2022/05/11 00:30:48;;;;;;;4.20;3.50;;;;;;;;;;515820;28;884;-83
2022/05/11 00:31:04;;;;;;;4.53;3.45;;;;;;;;;;515783;28;900;-83
2022/05/11 00:31:19;;;;;;;4.13;3.30;;;;;;;;;;516461;28;1373;-83
2022/05/11 00:31:35;;;;;;;3.55;3.22;;;;;;;;;;518364;28;1423;-83
2022/05/11 00:31:50;;;;;;;3.63;3.33;;;;;;;;;;517946;28;1085;-83
2022/05/11 00:32:06;;;;;;;3.90;3.50;;;;;;;;;;518042;28;923;-83
2022/05/11 00:32:24;;;;;;;3.70;3.40;;;;;;;;;;516137;28;1321;-83
2022/05/11 00:32:40;;;;;;;4.15;3.40;;;;;;;;;;516086;28;1313;-83
2022/05/11 00:32:57;;;;;;;4.35;3.50;;;;;;;;;;515807;28;1414;-83
2022/05/11 00:33:14;;;;;;;3.75;3.30;;;;;;;;;;514927;28;944;-83
2022/05/11 00:33:30;;;;;;;3.75;3.30;;;;;;;;;;515399;28;900;-83
2022/05/11 00:33:45;;;;;;;3.70;3.33;;;;;;;;;;517435;28;923;-83
2022/05/11 00:34:01;;;;;;;3.83;3.50;;;;;;;;;;517768;28;1346;-83
2022/05/11 00:34:16;;;;;;;3.80;3.33;;;;;;;;;;519226;28;773;-83
2022/05/11 00:34:32;;;;;;;4.53;3.30;;;;;;;;;;520942;28;892;-83
2022/05/11 00:34:47;;;;;;;5.20;3.60;;;;;;;;;;522005;28;1085;-83
2022/05/11 00:35:04;;;;;;;4.77;3.50;;;;;;;;;;519917;28;1315;-83
2022/05/11 00:35:20;;;;;;;4.55;3.45;;;;;;;;;;519987;28;1176;-83
2022/05/11 00:35:35;;;;;;;4.70;3.50;;;;;;;;;;520158;28;1093;-83
2022/05/11 00:35:51;;;;;;;3.93;3.40;;;;;;;;;;520331;28;800;-83
2022/05/11 00:36:12;;;;;;;3.75;3.20;;;;;;;;;;520163;28;911;-83
2022/05/11 00:36:28;;;;;;;4.25;3.40;;;;;;;;;;520028;28;946;-83
2022/05/11 00:36:43;;;;;;;4.10;3.47;;;;;;;;;;519911;28;1251;-83
2022/05/11 00:36:59;;;;;;;3.70;3.40;;;;;;;;;;521367;28;889;-83
2022/05/11 00:37:15;;;;;;;3.70;3.40;;;;;;;;;;519778;28;1331;-83
2022/05/11 00:37:30;;;;;;;3.80;3.50;;;;;;;;;;519988;28;978;-83
2022/05/11 00:37:45;;;;;;;3.87;3.53;;;;;;;;;;519804;28;1200;-83
2022/05/11 00:38:03;;;;;;;3.70;3.30;;;;;;;;;;517098;28;1211;-83
2022/05/11 00:38:21;;;;;;;3.40;3.10;;;;;;;;;;515503;28;1400;-83
2022/05/11 00:38:37;;;;;;;4.30;3.40;;;;;;;;;;515637;28;1513;-83
2022/05/11 00:38:52;;;;;;;4.07;3.53;;;;;;;;;;515885;28;829;-83
2022/05/11 00:39:07;;;;;;;4.20;3.35;;;;;;;;;;513671;28;1230;-83
2022/05/11 00:39:23;;;;;;;4.47;3.50;;;;;;;;;;513838;28;999;-83
2022/05/11 00:39:38;;;;;;;3.90;3.50;;;;;;;;;;513938;28;1153;-83
2022/05/11 00:39:54;;;;;;;3.70;3.40;;;;;;;;;;514474;28;1322;-83
2022/05/11 00:40:10;;;;;;;4.20;3.70;;;;;;;;;;515875;28;1276;-83
2022/05/11 00:40:25;;;;;;;4.07;3.67;;;;;;;;;;516310;28;852;-83
2022/05/11 00:40:50;;;;;;;3.87;3.50;;;;;;;;;;518024;28;899;-83
2022/05/11 00:41:06;;;;;;;3.88;3.47;;;;;;;;;;516834;28;1275;-83
2022/05/11 00:41:21;;;;;;;4.07;3.53;;;;;;;;;;516002;28;1344;-83
2022/05/11 00:41:40;;;;;;;4.00;3.50;;;;;;;;;;518212;28;1319;-83
2022/05/11 00:41:56;;;;;;;3.90;3.45;;;;;;;;;;517999;28;828;-83
2022/05/11 00:42:11;;;;;;;4.25;3.50;;;;;;;;;;518279;28;741;-83
2022/05/11 00:42:27;;;;;;;3.93;3.53;;;;;;;;;;517870;28;1264;-83
2022/05/11 00:42:42;;;;;;;3.92;3.55;;;;;;;;;;517950;28;967;-83
2022/05/11 00:42:58;;;;;;;4.17;3.63;;;;;;;;;;517851;28;1363;-83
2022/05/11 00:43:13;;;;;;;4.53;3.60;;;;;;;;;;518555;28;1193;-83
2022/05/11 00:43:35;;;;;;;4.67;3.60;;;;;;;;;;517961;28;1303;-83
2022/05/11 00:44:01;;;;;;;5.65;3.70;;;;;;;;;;517985;28;923;-83
2022/05/11 00:44:16;;;;;;;3.70;3.35;;;;;;;;;;512026;29;1542;-83
2022/05/11 00:44:32;;;;;;;3.60;3.30;;;;;;;;;;510003;29;1448;-83
2022/05/11 00:44:47;;;;;;;3.60;3.30;;;;;;;;;;507970;29;1046;-83
2022/05/11 00:45:06;;;;;;;3.70;3.40;;;;;;;;;;508466;29;1266;-83
2022/05/11 00:45:21;;;;;;;3.80;3.50;;;;;;;;;;511026;29;1237;-83
2022/05/11 00:45:41;;;;;;;4.13;3.42;;;;;;;;;;512019;29;1290;-83
2022/05/11 00:46:26;;;;;;;4.50;3.53;;;;;;;;;;511971;29;1327;-83
2022/05/11 00:47:06;;;;;;;3.60;3.30;;;;;;;;;;513775;28;1545;-83
2022/05/11 00:47:30;;;;;;;4.63;3.50;;;;;;;;;;516090;28;1259;-83
2022/05/11 00:47:51;;;;;;;3.90;3.30;;;;;;;;;;516651;28;1442;-83
2022/05/11 00:49:38;;;;;;;3.97;3.42;;;;;;;;;;517277;28;1177;-83
2022/05/11 00:49:58;;;;;;;4.00;3.63;;;;;;;;;;514919;28;1476;-83
2022/05/11 00:50:21;;;;;;;3.65;3.30;;;;;;;;;;514207;28;1496;-83
2022/05/11 00:50:37;;;;;;;3.60;3.30;;;;;;;;;;516006;28;845;-83
2022/05/11 00:50:53;;;;;;;4.00;3.35;;;;;;;;;;515963;28;1188;-83
2022/05/11 00:51:13;;;;;;;3.78;3.40;;;;;;;;;;515545;28;1474;-83
2022/05/11 00:51:35;;;;;;;3.97;3.60;;;;;;;;;;515619;28;1684;-83
2022/05/11 00:51:55;;;;;;;3.75;3.45;;;;;;;;;;517509;28;924;-83
2022/05/11 00:52:22;;;;;;;4.38;3.58;;;;;;;;;;519546;28;1267;-83
2022/05/11 00:52:43;;;;;;;5.32;3.60;;;;;;;;;;518029;28;931;-84
2022/05/11 00:53:09;;;;;;;4.22;3.35;;;;;;;;;;516026;28;1353;-83
2022/05/11 00:53:25;;;;;;;3.65;3.35;;;;;;;;;;515961;28;1288;-83
2022/05/11 00:53:45;;;;;;;3.97;3.42;;;;;;;;;;513986;28;1360;-83
2022/05/11 00:54:03;;;;;;;3.85;3.40;;;;;;;;;;514375;28;1527;-83
2022/05/11 00:54:21;;;;;;;3.70;3.40;;;;;;;;;;516065;28;1118;-83
2022/05/11 00:54:40;;;;;;;3.67;3.38;;;;;;;;;;516108;28;939;-83
2022/05/11 00:55:03;;;;;;;3.80;3.40;;;;;;;;;;516290;28;939;-82
2022/05/11 00:55:43;;;;;;;3.95;3.60;;;;;;;;;;512125;29;1403;-82
2022/05/11 00:56:01;;;;;;;4.10;3.50;;;;;;;;;;511758;29;1328;-82
2022/05/11 00:56:23;;;;;;;3.97;3.60;;;;;;;;;;515245;28;1157;-82
2022/05/11 00:56:43;;;;;;;5.03;3.80;;;;;;;;;;516266;28;1102;-82
2022/05/11 00:57:01;;;;;;;4.18;3.78;;;;;;;;;;514209;28;1244;-82
2022/05/11 00:57:25;;;;;;;4.20;3.80;;;;;;;;;;513687;28;1368;-82
2022/05/11 00:57:55;;;;;;;4.47;4.07;;;;;;;;;;514108;28;880;-82
2022/05/11 00:58:26;;;;;;;4.13;3.72;;;;;;;;;;514220;28;978;-82
2022/05/11 00:58:49;;;;;;;4.30;3.55;;;;;;;;;;512066;29;1018;-82
2022/05/11 00:59:14;;;;;;;4.22;3.50;;;;;;;;;;512262;28;1480;-82
2022/05/11 00:59:33;;;;;;;4.05;3.67;;;;;;;;;;513958;28;1231;-82
2022/05/11 00:59:51;;;;;;;3.88;3.58;;;;;;;;;;514004;28;1070;-82
2022/05/11 01:00:10;;;;;;;4.22;3.80;;;;;;;;;;511968;28;1228;-82
2022/05/11 01:00:28;;;;;;;4.60;3.80;;;;;;;;;;512049;29;924;-82
2022/05/11 01:00:44;;;;;;;4.35;3.85;;;;;;;;;;511993;29;1438;-82
2022/05/11 01:01:00;;;;;;;4.30;3.90;;;;;;;;;;514171;28;1360;-82
2022/05/11 01:01:15;;;;;;;4.43;4.03;;;;;;;;;;514253;28;829;-82
2022/05/11 01:01:31;;;;;;;5.23;4.07;;;;;;;;;;512138;29;1193;-82
2022/05/11 01:01:47;;;;;;;5.80;3.95;;;;;;;;;;512098;29;968;-82
2022/05/11 01:02:06;;;;;;;5.07;4.00;;;;;;;;;;512215;28;903;-82
2022/05/11 01:02:22;;;;;;;4.55;4.07;;;;;;;;;;512150;29;1488;-82
2022/05/11 01:02:40;;;;;;;5.15;3.90;;;;;;;;;;511177;29;1285;-82
2022/05/11 01:03:18;;;;;;;4.95;3.85;;;;;;;;;;511922;28;1260;-82
2022/05/11 01:03:39;;;;;;;5.18;4.00;;;;;;;;;;513884;28;889;-82
2022/05/11 01:04:04;;;;;;;5.60;4.07;;;;;;;;;;513799;28;1069;-82
2022/05/11 01:04:21;;;;;;;5.10;4.25;;;;;;;;;;515701;28;766;-83
2022/05/11 01:04:40;;;;;;;4.50;4.10;;;;;;;;;;517766;28;932;-83
2022/05/11 01:05:00;;;;;;;4.50;4.10;;;;;;;;;;518135;28;972;-82
2022/05/11 01:05:16;;;;;;;4.97;4.20;;;;;;;;;;518059;28;1305;-83
2022/05/11 01:05:31;;;;;;;4.70;4.20;;;;;;;;;;518080;28;1394;-83
2022/05/11 01:05:47;;;;;;;4.57;4.17;;;;;;;;;;515964;28;1198;-83
2022/05/11 01:06:02;;;;;;;4.70;4.25;;;;;;;;;;514001;28;1910;-83
2022/05/11 01:06:21;;;;;;;5.10;4.10;;;;;;;;;;514197;28;1241;-83
2022/05/11 01:06:37;;;;;;;5.03;3.80;;;;;;;;;;514193;28;933;-82
2022/05/11 01:06:52;;;;;;;4.38;3.70;;;;;;;;;;512242;28;1244;-82
2022/05/11 01:07:11;;;;;;;4.10;3.70;;;;;;;;;;510098;28;1425;-82
2022/05/11 01:07:28;;;;;;;4.82;3.80;;;;;;;;;;512160;29;1227;-82
2022/05/11 01:07:43;;;;;;;5.65;3.95;;;;;;;;;;512189;29;881;-82
2022/05/11 01:08:00;;;;;;;4.97;3.80;;;;;;;;;;512230;29;892;-82
2022/05/11 01:08:19;;;;;;;4.32;3.83;;;;;;;;;;511491;29;1363;-82
2022/05/11 01:08:35;;;;;;;4.55;3.95;;;;;;;;;;511828;29;1326;-82
2022/05/11 01:08:51;;;;;;;5.57;4.00;;;;;;;;;;513455;28;980;-82
2022/05/11 01:09:07;;;;;;;5.47;3.85;;;;;;;;;;511961;29;1264;-82
2022/05/11 01:09:22;;;;;;;4.32;3.80;;;;;;;;;;511814;29;1241;-82
2022/05/11 01:09:39;;;;;;;4.53;4.10;;;;;;;;;;512202;28;885;-82
2022/05/11 01:09:54;;;;;;;4.57;4.18;;;;;;;;;;515715;28;845;-82
2022/05/11 01:10:10;;;;;;;4.60;4.20;;;;;;;;;;517242;28;813;-82
2022/05/11 01:10:28;;;;;;;4.80;4.20;;;;;;;;;;518676;28;1208;-82
2022/05/11 01:10:45;;;;;;;5.38;4.05;;;;;;;;;;519907;28;1404;-82
2022/05/11 01:11:03;;;;;;;4.85;4.10;;;;;;;;;;520075;28;907;-82
2022/05/11 01:11:18;;;;;;;4.82;4.10;;;;;;;;;;519945;28;1314;-82
2022/05/11 01:11:40;;;;;;;4.63;4.00;;;;;;;;;;519858;28;1208;-83
2022/05/11 01:12:01;;;;;;;6.32;4.15;;;;;;;;;;519869;28;1234;-82
2022/05/11 01:12:19;;;;;;;5.03;3.97;;;;;;;;;;517841;28;1426;-83
2022/05/11 01:12:41;;;;;;;4.22;3.80;;;;;;;;;;515452;28;1437;-83
2022/05/11 01:13:00;;;;;;;4.80;4.15;;;;;;;;;;514145;28;1286;-83
2022/05/11 01:13:16;;;;;;;4.47;4.07;;;;;;;;;;514010;28;1353;-83
2022/05/11 01:13:32;;;;;;;5.07;4.10;;;;;;;;;;514087;28;1008;-83
2022/05/11 01:13:48;;;;;;;5.45;4.40;;;;;;;;;;513968;28;1277;-82
2022/05/11 01:14:06;;;;;;;5.32;4.53;;;;;;;;;;512163;28;1311;-82
2022/05/11 01:14:26;;;;;;;6.18;4.40;;;;;;;;;;514249;28;908;-82
2022/05/11 01:14:45;;;;;;;5.05;4.38;;;;;;;;;;516241;28;896;-82
2022/05/11 01:15:04;;;;;;;4.60;4.20;;;;;;;;;;516095;28;1371;-83
2022/05/11 01:15:20;;;;;;;4.95;4.22;;;;;;;;;;514127;28;1430;-83
2022/05/11 01:15:36;;;;;;;4.68;4.20;;;;;;;;;;512371;28;1252;-82
2022/05/11 01:15:52;;;;;;;4.80;4.32;;;;;;;;;;512460;28;1213;-82
2022/05/11 01:16:08;;;;;;;4.95;4.45;;;;;;;;;;513973;28;1285;-82
2022/05/11 01:16:26;;;;;;;5.30;4.38;;;;;;;;;;513985;28;1257;-82
2022/05/11 01:16:42;;;;;;;5.13;4.32;;;;;;;;;;513865;28;1320;-82
2022/05/11 01:16:58;;;;;;;4.77;4.30;;;;;;;;;;515862;28;1312;-82
2022/05/11 01:17:14;;;;;;;4.90;4.40;;;;;;;;;;515742;28;1268;-82
2022/05/11 01:17:29;;;;;;;4.70;4.30;;;;;;;;;;513830;28;1154;-82
2022/05/11 01:17:45;;;;;;;4.47;4.07;;;;;;;;;;513887;28;892;-82
2022/05/11 01:18:03;;;;;;;5.22;4.13;;;;;;;;;;514859;28;1008;-82
2022/05/11 01:18:20;;;;;;;4.47;3.97;;;;;;;;;;513753;28;1293;-82
2022/05/11 01:18:38;;;;;;;4.30;3.90;;;;;;;;;;513902;28;1414;-82
2022/05/11 01:18:54;;;;;;;5.35;4.20;;;;;;;;;;513447;28;1332;-82
2022/05/11 01:19:18;;;;;;;5.30;4.13;;;;;;;;;;512137;29;1182;-82
2022/05/11 01:19:38;;;;;;;4.93;4.30;;;;;;;;;;512188;29;940;-82
2022/05/11 01:19:53;;;;;;;5.28;4.43;;;;;;;;;;511853;29;1352;-82
2022/05/11 01:20:15;;;;;;;4.93;4.40;;;;;;;;;;512549;28;1195;-82
2022/05/11 01:20:33;;;;;;;5.15;4.55;;;;;;;;;;514134;28;1424;-82
2022/05/11 01:20:48;;;;;;;5.00;4.38;;;;;;;;;;515146;28;1276;-82
2022/05/11 01:21:05;;;;;;;4.60;4.20;;;;;;;;;;516220;28;959;-82
2022/05/11 01:21:22;;;;;;;4.63;4.22;;;;;;;;;;516227;28;884;-82
2022/05/11 01:21:52;;;;;;;4.80;4.40;;;;;;;;;;516138;28;1352;-82
2022/05/11 01:22:26;;;;;;;5.18;4.38;;;;;;;;;;515723;28;1268;-82
2022/05/11 01:23:01;;;;;;;6.13;4.40;;;;;;;;;;515935;28;1363;-83
2022/05/11 01:23:35;;;;;;;4.68;4.20;;;;;;;;;;515885;28;1098;-82
2022/05/11 01:24:07;;;;;;;5.00;4.35;;;;;;;;;;513754;28;1343;-82
2022/05/11 01:24:33;;;;;;;7.25;4.53;;;;;;;;;;513827;28;1327;-82
2022/05/11 01:24:50;;;;;;;5.22;4.72;;;;;;;;;;515918;28;952;-82
2022/05/11 01:25:08;;;;;;;4.88;4.38;;;;;;;;;;516114;28;774;-83
2022/05/11 01:25:24;;;;;;;4.88;4.38;;;;;;;;;;516051;28;1336;-83
2022/05/11 01:25:40;;;;;;;4.88;4.38;;;;;;;;;;516477;28;888;-83
2022/05/11 01:25:55;;;;;;;5.47;4.50;;;;;;;;;;516117;28;1264;-83
2022/05/11 01:26:11;;;;;;;5.43;4.55;;;;;;;;;;515933;28;1910;-83
2022/05/11 01:26:26;;;;;;;4.90;4.47;;;;;;;;;;514100;28;1271;-83
2022/05/11 01:26:41;;;;;;;4.97;4.40;;;;;;;;;;514235;28;836;-83
2022/05/11 01:26:57;;;;;;;5.32;4.32;;;;;;;;;;514014;28;1337;-83
2022/05/11 01:27:33;;;;;;;5.77;4.40;;;;;;;;;;514568;28;932;-83
2022/05/11 01:27:48;;;;;;;5.55;4.40;;;;;;;;;;517156;28;845;-83
2022/05/11 01:28:11;;;;;;;5.35;4.50;;;;;;;;;;517048;28;1165;-82
2022/05/11 01:28:27;;;;;;;4.90;4.38;;;;;;;;;;517948;28;952;-82
2022/05/11 01:28:44;;;;;;;5.28;4.40;;;;;;;;;;517954;28;1064;-82
2022/05/11 01:29:00;;;;;;;5.63;4.13;;;;;;;;;;515809;28;1291;-82
2022/05/11 01:29:16;;;;;;;5.32;4.00;;;;;;;;;;513870;28;1161;-82
2022/05/11 01:29:31;;;;;;;5.63;4.10;;;;;;;;;;515888;28;1204;-82
2022/05/11 01:29:46;;;;;;;5.60;4.20;;;;;;;;;;516048;28;888;-82
2022/05/11 01:30:12;;;;;;;5.43;4.50;;;;;;;;;;513812;28;1517;-82
2022/05/11 01:30:28;;;;;;;5.38;4.10;;;;;;;;;;512140;29;1392;-82
2022/05/11 01:30:49;;;;;;;4.70;4.20;;;;;;;;;;512101;29;1178;-82
2022/05/11 01:31:08;;;;;;;5.07;4.30;;;;;;;;;;511933;29;912;-82
2022/05/11 01:31:24;;;;;;;4.90;4.25;;;;;;;;;;512856;28;1008;-83
2022/05/11 01:31:39;;;;;;;4.53;4.10;;;;;;;;;;513911;28;1031;-83
2022/05/11 01:31:54;;;;;;;4.67;4.00;;;;;;;;;;512579;28;1166;-83
2022/05/11 01:32:10;;;;;;;5.70;4.13;;;;;;;;;;514069;28;769;-82
2022/05/11 01:32:27;;;;;;;5.67;4.20;;;;;;;;;;515405;28;1248;-82
2022/05/11 01:32:46;;;;;;;5.07;4.00;;;;;;;;;;515927;28;1105;-82
2022/05/11 01:33:01;;;;;;;4.57;4.00;;;;;;;;;;517465;28;868;-82
2022/05/11 01:33:23;;;;;;;4.70;4.20;;;;;;;;;;516499;28;911;-82
2022/05/11 01:33:42;;;;;;;4.70;4.20;;;;;;;;;;516061;28;857;-83
2022/05/11 01:33:57;;;;;;;4.32;3.92;;;;;;;;;;515961;28;1211;-83
2022/05/11 01:34:19;;;;;;;4.45;4.05;;;;;;;;;;516235;28;955;-83
2022/05/11 01:34:34;;;;;;;4.53;4.10;;;;;;;;;;515833;28;1507;-83
2022/05/11 01:34:58;;;;;;;4.60;4.10;;;;;;;;;;513826;28;1368;-82
2022/05/11 01:35:31;;;;;;;4.50;4.05;;;;;;;;;;513897;28;1300;-82
2022/05/11 01:35:46;;;;;;;4.18;3.78;;;;;;;;;;514063;28;853;-83
2022/05/11 01:36:15;;;;;;;4.20;3.80;;;;;;;;;;514051;28;932;-83
2022/05/11 01:36:36;;;;;;;4.30;4.00;;;;;;;;;;515303;28;850;-83
2022/05/11 01:36:55;;;;;;;4.55;3.80;;;;;;;;;;514066;28;909;-83
2022/05/11 01:37:10;;;;;;;5.50;3.85;;;;;;;;;;515431;28;1009;-83
2022/05/11 01:37:25;;;;;;;4.63;4.00;;;;;;;;;;516150;28;903;-83
2022/05/11 01:38:03;;;;;;;4.50;4.10;;;;;;;;;;514066;28;1289;-83
2022/05/11 01:38:29;;;;;;;5.05;4.10;;;;;;;;;;513774;28;917;-83
2022/05/11 01:38:47;;;;;;;4.43;4.03;;;;;;;;;;511772;29;1345;-83
2022/05/11 01:39:08;;;;;;;4.35;3.95;;;;;;;;;;511579;29;1229;-83
2022/05/11 01:39:23;;;;;;;4.57;4.05;;;;;;;;;;511830;29;1038;-82
2022/05/11 01:39:38;;;;;;;4.63;4.20;;;;;;;;;;513470;28;920;-82
2022/05/11 01:39:54;;;;;;;5.25;4.22;;;;;;;;;;513967;28;912;-82
2022/05/11 01:40:09;;;;;;;4.43;3.97;;;;;;;;;;514469;28;1192;-82
2022/05/11 01:40:24;;;;;;;4.27;3.87;;;;;;;;;;515736;28;1208;-83
2022/05/11 01:40:40;;;;;;;4.47;4.07;;;;;;;;;;515958;28;892;-83
2022/05/11 01:40:56;;;;;;;4.57;4.18;;;;;;;;;;513852;28;1398;-83
2022/05/11 01:41:35;;;;;;;4.40;4.00;;;;;;;;;;513831;28;1247;-83
2022/05/11 01:41:52;;;;;;;4.30;3.90;;;;;;;;;;511830;29;960;-83
2022/05/11 01:42:07;;;;;;;4.40;4.00;;;;;;;;;;510222;29;1358;-83
2022/05/11 01:42:23;;;;;;;4.70;4.30;;;;;;;;;;510132;29;822;-83
2022/05/11 01:42:38;;;;;;;4.87;4.30;;;;;;;;;;511976;29;1272;-82
2022/05/11 01:42:54;;;;;;;6.13;4.13;;;;;;;;;;513540;28;1367;-82
2022/05/11 01:43:31;;;;;;;5.10;4.30;;;;;;;;;;511973;29;1243;-83
2022/05/11 01:43:46;;;;;;;5.50;4.30;;;;;;;;;;513258;28;1107;-82
2022/05/11 01:44:04;;;;;;;5.32;4.10;;;;;;;;;;514112;28;1300;-82
2022/05/11 01:44:21;;;;;;;4.68;4.20;;;;;;;;;;513974;28;1340;-82
2022/05/11 01:44:36;;;;;;;5.25;4.35;;;;;;;;;;514089;28;1259;-82
2022/05/11 01:44:52;;;;;;;5.15;4.20;;;;;;;;;;511992;29;1336;-82
2022/05/11 01:45:07;;;;;;;5.13;4.03;;;;;;;;;;512143;29;1121;-82
2022/05/11 01:45:23;;;;;;;5.40;4.07;;;;;;;;;;512107;29;1221;-82
2022/05/11 01:45:38;;;;;;;4.73;4.23;;;;;;;;;;512194;29;880;-82
2022/05/11 01:45:54;;;;;;;5.53;4.47;;;;;;;;;;510734;29;1215;-82
2022/05/11 01:46:10;;;;;;;5.68;4.40;;;;;;;;;;512039;29;1915;-82
2022/05/11 01:46:27;;;;;;;4.97;4.25;;;;;;;;;;512154;28;810;-82
2022/05/11 01:46:53;;;;;;;6.13;4.38;;;;;;;;;;514407;28;1011;-82
2022/05/11 01:47:08;;;;;;;5.10;4.43;;;;;;;;;;515860;28;845;-83
2022/05/11 01:47:24;;;;;;;4.95;4.30;;;;;;;;;;516060;28;853;-83
2022/05/11 01:47:39;;;;;;;4.93;4.43;;;;;;;;;;513966;28;1173;-83
2022/05/11 01:47:56;;;;;;;4.90;4.40;;;;;;;;;;515941;28;1272;-83
2022/05/11 01:48:11;;;;;;;4.78;4.30;;;;;;;;;;513936;28;1275;-83
2022/05/11 01:48:28;;;;;;;4.50;4.10;;;;;;;;;;514100;28;999;-83
2022/05/11 01:48:43;;;;;;;4.60;4.13;;;;;;;;;;514177;28;865;-82
2022/05/11 01:48:59;;;;;;;4.78;4.30;;;;;;;;;;512012;29;1298;-83
2022/05/11 01:49:15;;;;;;;4.60;4.20;;;;;;;;;;512181;29;897;-83
2022/05/11 01:49:31;;;;;;;4.70;4.30;;;;;;;;;;512550;28;1262;-83
2022/05/11 01:49:46;;;;;;;5.35;4.38;;;;;;;;;;513924;28;857;-82
2022/05/11 01:50:02;;;;;;;6.17;4.63;;;;;;;;;;513739;28;1371;-82
2022/05/11 01:50:17;;;;;;;5.68;4.63;;;;;;;;;;513998;28;888;-82
2022/05/11 01:50:32;;;;;;;4.83;4.40;;;;;;;;;;514123;28;837;-82
2022/05/11 01:50:48;;;;;;;4.60;4.20;;;;;;;;;;514359;28;1277;-82
2022/05/11 01:51:04;;;;;;;4.67;4.20;;;;;;;;;;514126;28;1265;-82
2022/05/11 01:51:20;;;;;;;5.43;4.40;;;;;;;;;;514572;28;994;-82
2022/05/11 01:51:35;;;;;;;5.75;4.30;;;;;;;;;;513954;28;1259;-82
2022/05/11 01:51:51;;;;;;;4.93;4.20;;;;;;;;;;514107;28;1184;-82